sensor_id;sensor_type;location;lat;lon;timestamp;temperature;humidity
5554;DHT22;2800;49.528;8.666;2022-10-20T00:01:21;12.00;99.90
5554;DHT22;2800;49.528;8.666;2022-10-20T00:03:47;12.00;99.90
5554;DHT22;2800;49.528;8.666;2022-10-20T00:06:20;12.10;99.90
5554;DHT22;2800;49.528;8.666;2022-10-20T00:08:47;12.00;99.90
5554;DHT22;2800;49.528;8.666;2022-10-20T00:11:16;12.20;99.90
5554;DHT22;2800;49.528;8.666;2022-10-20T00:13:43;12.30;99.90
5554;DHT22;2800;49.528;8.666;2022-10-20T00:16:09;12.20;99.90
5554;DHT22;2800;49.528;8.666;2022-10-20T00:18:35;12.40;99.90
5554;DHT22;2800;49.528;8.666;2022-10-20T00:21:11;12.40;99.90
5554;DHT22;2800;49.528;8.666;2022-10-20T00:23:37;12.40;99.90
5554;DHT22;2800;49.528;8.666;2022-10-20T00:26:05;12.40;99.90
5554;DHT22;2800;49.528;8.666;2022-10-20T00:28:31;12.40;99.90
5554;DHT22;2800;49.528;8.666;2022-10-20T00:30:57;12.40;99.90
5554;DHT22;2800;49.528;8.666;2022-10-20T00:33:23;12.40;99.90
5554;DHT22;2800;49.528;8.666;2022-10-20T00:35:48;12.40;99.90
5554;DHT22;2800;49.528;8.666;2022-10-20T00:38:14;12.20;99.90
5554;DHT22;2800;49.528;8.666;2022-10-20T00:40:39;12.30;99.90
5554;DHT22;2800;49.528;8.666;2022-10-20T00:43:09;12.30;99.90
5554;DHT22;2800;49.528;8.666;2022-10-20T00:45:36;12.30;99.90
5554;DHT22;2800;49.528;8.666;2022-10-20T00:48:18;12.40;99.90
5554;DHT22;2800;49.528;8.666;2022-10-20T00:50:52;12.30;99.90
5554;DHT22;2800;49.528;8.666;2022-10-20T00:53:21;12.30;99.90
5554;DHT22;2800;49.528;8.666;2022-10-20T00:55:48;12.40;99.90
5554;DHT22;2800;49.528;8.666;2022-10-20T00:58:15;12.30;99.90
5554;DHT22;2800;49.528;8.666;2022-10-20T01:00:42;12.30;99.90
5554;DHT22;2800;49.528;8.666;2022-10-20T01:03:16;12.30;99.90
5554;DHT22;2800;49.528;8.666;2022-10-20T01:05:42;12.30;99.90
5554;DHT22;2800;49.528;8.666;2022-10-20T01:08:08;12.20;99.90
5554;DHT22;2800;49.528;8.666;2022-10-20T01:10:50;12.10;99.90
5554;DHT22;2800;49.528;8.666;2022-10-20T01:13:35;12.00;99.90
5554;DHT22;2800;49.528;8.666;2022-10-20T01:16:25;11.90;99.90
5554;DHT22;2800;49.528;8.666;2022-10-20T01:19:11;11.90;99.90
5554;DHT22;2800;49.528;8.666;2022-10-20T01:24:52;11.80;99.90
5554;DHT22;2800;49.528;8.666;2022-10-20T01:30:00;12.00;99.90
5554;DHT22;2800;49.528;8.666;2022-10-20T01:35:20;12.10;99.90
5554;DHT22;2800;49.528;8.666;2022-10-20T01:38:03;12.10;99.90
5554;DHT22;2800;49.528;8.666;2022-10-20T01:40:40;12.10;99.90
5554;DHT22;2800;49.528;8.666;2022-10-20T01:43:10;12.10;99.90
5554;DHT22;2800;49.528;8.666;2022-10-20T01:45:39;12.00;99.90
5554;DHT22;2800;49.528;8.666;2022-10-20T01:48:08;11.90;99.90
5554;DHT22;2800;49.528;8.666;2022-10-20T01:50:35;11.90;99.90
5554;DHT22;2800;49.528;8.666;2022-10-20T01:53:02;11.80;99.90
5554;DHT22;2800;49.528;8.666;2022-10-20T01:55:28;11.80;99.90
5554;DHT22;2800;49.528;8.666;2022-10-20T02:00:38;11.70;99.90
5554;DHT22;2800;49.528;8.666;2022-10-20T02:03:24;11.90;99.90
5554;DHT22;2800;49.528;8.666;2022-10-20T02:06:12;11.90;99.90
5554;DHT22;2800;49.528;8.666;2022-10-20T02:08:50;11.90;99.90
5554;DHT22;2800;49.528;8.666;2022-10-20T02:14:01;11.80;99.90
5554;DHT22;2800;49.528;8.666;2022-10-20T02:16:34;11.90;99.90
5554;DHT22;2800;49.528;8.666;2022-10-20T02:19:00;11.90;99.90
5554;DHT22;2800;49.528;8.666;2022-10-20T02:21:27;12.00;99.90
5554;DHT22;2800;49.528;8.666;2022-10-20T02:23:53;11.90;99.90
5554;DHT22;2800;49.528;8.666;2022-10-20T02:26:22;12.10;99.90
5554;DHT22;2800;49.528;8.666;2022-10-20T02:28:53;12.20;99.90
5554;DHT22;2800;49.528;8.666;2022-10-20T02:31:20;12.20;99.90
5554;DHT22;2800;49.528;8.666;2022-10-20T02:33:46;12.20;99.90
5554;DHT22;2800;49.528;8.666;2022-10-20T02:36:16;12.30;99.90
5554;DHT22;2800;49.528;8.666;2022-10-20T02:38:42;12.30;99.90
5554;DHT22;2800;49.528;8.666;2022-10-20T02:41:08;12.20;99.90
5554;DHT22;2800;49.528;8.666;2022-10-20T02:43:33;12.30;99.90
5554;DHT22;2800;49.528;8.666;2022-10-20T02:45:59;12.40;99.90
5554;DHT22;2800;49.528;8.666;2022-10-20T02:48:24;12.40;99.90
5554;DHT22;2800;49.528;8.666;2022-10-20T02:50:50;12.40;99.90
5554;DHT22;2800;49.528;8.666;2022-10-20T02:53:16;12.40;99.90
5554;DHT22;2800;49.528;8.666;2022-10-20T02:55:42;12.30;99.90
5554;DHT22;2800;49.528;8.666;2022-10-20T02:58:08;12.30;99.90
5554;DHT22;2800;49.528;8.666;2022-10-20T03:00:34;12.30;99.90
5554;DHT22;2800;49.528;8.666;2022-10-20T03:02:59;12.30;99.90
5554;DHT22;2800;49.528;8.666;2022-10-20T03:05:25;12.30;99.90
5554;DHT22;2800;49.528;8.666;2022-10-20T03:07:52;12.40;99.90
5554;DHT22;2800;49.528;8.666;2022-10-20T03:10:18;12.40;99.90
5554;DHT22;2800;49.528;8.666;2022-10-20T03:12:43;12.40;99.90
5554;DHT22;2800;49.528;8.666;2022-10-20T03:15:09;12.40;99.90
5554;DHT22;2800;49.528;8.666;2022-10-20T03:17:35;12.30;99.90
5554;DHT22;2800;49.528;8.666;2022-10-20T03:20:00;12.30;99.90
5554;DHT22;2800;49.528;8.666;2022-10-20T03:22:27;12.20;99.90
5554;DHT22;2800;49.528;8.666;2022-10-20T03:24:52;12.10;99.90
5554;DHT22;2800;49.528;8.666;2022-10-20T03:27:18;12.00;99.90
5554;DHT22;2800;49.528;8.666;2022-10-20T03:29:43;12.00;99.90
5554;DHT22;2800;49.528;8.666;2022-10-20T03:32:09;12.00;99.90
5554;DHT22;2800;49.528;8.666;2022-10-20T03:34:34;12.00;99.90
5554;DHT22;2800;49.528;8.666;2022-10-20T03:37:00;11.90;99.90
5554;DHT22;2800;49.528;8.666;2022-10-20T03:39:25;11.90;99.90
5554;DHT22;2800;49.528;8.666;2022-10-20T03:41:51;11.90;99.90
5554;DHT22;2800;49.528;8.666;2022-10-20T03:44:16;11.80;99.90
5554;DHT22;2800;49.528;8.666;2022-10-20T03:46:42;11.90;99.90
5554;DHT22;2800;49.528;8.666;2022-10-20T03:49:07;11.90;99.90
5554;DHT22;2800;49.528;8.666;2022-10-20T03:51:33;12.00;99.90
5554;DHT22;2800;49.528;8.666;2022-10-20T03:53:58;12.10;99.90
5554;DHT22;2800;49.528;8.666;2022-10-20T03:56:24;12.20;99.90
5554;DHT22;2800;49.528;8.666;2022-10-20T03:58:49;12.30;99.90
5554;DHT22;2800;49.528;8.666;2022-10-20T04:01:17;12.40;99.90
5554;DHT22;2800;49.528;8.666;2022-10-20T04:03:44;12.40;99.90
5554;DHT22;2800;49.528;8.666;2022-10-20T04:06:11;12.50;99.90
5554;DHT22;2800;49.528;8.666;2022-10-20T04:08:37;12.60;99.90
5554;DHT22;2800;49.528;8.666;2022-10-20T04:11:02;12.80;99.90
5554;DHT22;2800;49.528;8.666;2022-10-20T04:13:28;12.70;99.90
5554;DHT22;2800;49.528;8.666;2022-10-20T04:15:53;12.80;99.90
5554;DHT22;2800;49.528;8.666;2022-10-20T04:18:19;12.80;99.90
5554;DHT22;2800;49.528;8.666;2022-10-20T04:20:46;12.80;99.90
5554;DHT22;2800;49.528;8.666;2022-10-20T04:23:12;12.80;99.90
5554;DHT22;2800;49.528;8.666;2022-10-20T04:25:41;12.70;99.90
5554;DHT22;2800;49.528;8.666;2022-10-20T04:28:11;12.80;99.90
5554;DHT22;2800;49.528;8.666;2022-10-20T04:30:39;12.60;99.90
5554;DHT22;2800;49.528;8.666;2022-10-20T04:33:05;12.60;99.90
5554;DHT22;2800;49.528;8.666;2022-10-20T04:35:30;12.70;99.90
5554;DHT22;2800;49.528;8.666;2022-10-20T04:37:56;12.70;99.90
5554;DHT22;2800;49.528;8.666;2022-10-20T04:40:21;12.60;99.90
5554;DHT22;2800;49.528;8.666;2022-10-20T04:42:47;12.50;99.90
5554;DHT22;2800;49.528;8.666;2022-10-20T04:45:12;12.60;99.90
5554;DHT22;2800;49.528;8.666;2022-10-20T04:47:38;12.60;99.90
5554;DHT22;2800;49.528;8.666;2022-10-20T04:50:04;12.50;99.90
5554;DHT22;2800;49.528;8.666;2022-10-20T04:52:30;12.50;99.90
5554;DHT22;2800;49.528;8.666;2022-10-20T04:54:55;12.50;99.90
5554;DHT22;2800;49.528;8.666;2022-10-20T04:57:21;12.50;99.90
5554;DHT22;2800;49.528;8.666;2022-10-20T04:59:46;12.50;99.90
5554;DHT22;2800;49.528;8.666;2022-10-20T05:02:12;12.40;99.90
5554;DHT22;2800;49.528;8.666;2022-10-20T05:04:37;12.40;99.90
5554;DHT22;2800;49.528;8.666;2022-10-20T05:07:03;12.40;99.90
5554;DHT22;2800;49.528;8.666;2022-10-20T05:09:28;12.40;99.90
5554;DHT22;2800;49.528;8.666;2022-10-20T05:11:55;12.40;99.90
5554;DHT22;2800;49.528;8.666;2022-10-20T05:14:21;12.40;99.90
5554;DHT22;2800;49.528;8.666;2022-10-20T05:16:46;12.50;99.90
5554;DHT22;2800;49.528;8.666;2022-10-20T05:19:12;12.40;99.90
5554;DHT22;2800;49.528;8.666;2022-10-20T05:21:37;12.50;99.90
5554;DHT22;2800;49.528;8.666;2022-10-20T05:24:04;12.40;99.90
5554;DHT22;2800;49.528;8.666;2022-10-20T05:26:32;12.40;99.90
5554;DHT22;2800;49.528;8.666;2022-10-20T05:29:01;12.40;99.90
5554;DHT22;2800;49.528;8.666;2022-10-20T05:31:26;12.40;99.90
5554;DHT22;2800;49.528;8.666;2022-10-20T05:33:54;12.40;99.90
5554;DHT22;2800;49.528;8.666;2022-10-20T05:36:22;12.40;99.90
5554;DHT22;2800;49.528;8.666;2022-10-20T05:38:48;12.40;99.90
5554;DHT22;2800;49.528;8.666;2022-10-20T05:41:17;12.40;99.90
5554;DHT22;2800;49.528;8.666;2022-10-20T05:43:50;12.30;99.90
5554;DHT22;2800;49.528;8.666;2022-10-20T05:46:17;12.30;99.90
5554;DHT22;2800;49.528;8.666;2022-10-20T05:48:43;12.30;99.90
5554;DHT22;2800;49.528;8.666;2022-10-20T05:51:14;12.30;99.90
5554;DHT22;2800;49.528;8.666;2022-10-20T05:53:41;12.20;99.90
5554;DHT22;2800;49.528;8.666;2022-10-20T05:56:08;12.20;99.90
5554;DHT22;2800;49.528;8.666;2022-10-20T05:58:34;12.20;99.90
5554;DHT22;2800;49.528;8.666;2022-10-20T06:01:13;12.20;99.90
5554;DHT22;2800;49.528;8.666;2022-10-20T06:03:46;12.20;99.90
5554;DHT22;2800;49.528;8.666;2022-10-20T06:06:12;12.20;99.90
5554;DHT22;2800;49.528;8.666;2022-10-20T06:08:38;12.10;99.90
5554;DHT22;2800;49.528;8.666;2022-10-20T06:11:05;12.10;99.90
5554;DHT22;2800;49.528;8.666;2022-10-20T06:13:31;12.10;99.90
5554;DHT22;2800;49.528;8.666;2022-10-20T06:16:07;12.10;99.90
5554;DHT22;2800;49.528;8.666;2022-10-20T06:18:33;12.10;99.90
5554;DHT22;2800;49.528;8.666;2022-10-20T06:21:08;12.10;99.90
5554;DHT22;2800;49.528;8.666;2022-10-20T06:23:34;12.10;99.90
5554;DHT22;2800;49.528;8.666;2022-10-20T06:26:04;12.00;99.90
5554;DHT22;2800;49.528;8.666;2022-10-20T06:28:32;12.00;99.90
5554;DHT22;2800;49.528;8.666;2022-10-20T06:30:59;12.00;99.90
5554;DHT22;2800;49.528;8.666;2022-10-20T06:33:27;12.00;99.90
5554;DHT22;2800;49.528;8.666;2022-10-20T06:35:58;12.10;99.90
5554;DHT22;2800;49.528;8.666;2022-10-20T06:38:24;12.10;99.90
5554;DHT22;2800;49.528;8.666;2022-10-20T06:40:49;12.20;99.90
5554;DHT22;2800;49.528;8.666;2022-10-20T06:43:15;12.20;99.90
5554;DHT22;2800;49.528;8.666;2022-10-20T06:45:40;12.30;99.90
5554;DHT22;2800;49.528;8.666;2022-10-20T06:48:06;12.40;99.90
5554;DHT22;2800;49.528;8.666;2022-10-20T06:50:33;11.90;99.90
5554;DHT22;2800;49.528;8.666;2022-10-20T06:52:58;12.60;99.90
5554;DHT22;2800;49.528;8.666;2022-10-20T06:55:24;12.70;99.90
5554;DHT22;2800;49.528;8.666;2022-10-20T06:57:49;12.70;99.90
5554;DHT22;2800;49.528;8.666;2022-10-20T07:00:15;12.80;99.90
5554;DHT22;2800;49.528;8.666;2022-10-20T07:02:40;12.80;99.90
5554;DHT22;2800;49.528;8.666;2022-10-20T07:05:06;12.90;99.90
5554;DHT22;2800;49.528;8.666;2022-10-20T07:07:32;12.90;99.90
5554;DHT22;2800;49.528;8.666;2022-10-20T07:09:57;12.70;99.90
5554;DHT22;2800;49.528;8.666;2022-10-20T07:12:23;12.70;99.90
5554;DHT22;2800;49.528;8.666;2022-10-20T07:14:48;12.70;99.90
5554;DHT22;2800;49.528;8.666;2022-10-20T07:17:14;12.70;99.90
5554;DHT22;2800;49.528;8.666;2022-10-20T07:19:39;12.70;99.90
5554;DHT22;2800;49.528;8.666;2022-10-20T07:22:05;12.60;99.90
5554;DHT22;2800;49.528;8.666;2022-10-20T07:24:30;12.70;99.90
5554;DHT22;2800;49.528;8.666;2022-10-20T07:26:56;12.80;99.90
5554;DHT22;2800;49.528;8.666;2022-10-20T07:29:21;13.10;99.90
5554;DHT22;2800;49.528;8.666;2022-10-20T07:31:47;13.30;99.90
5554;DHT22;2800;49.528;8.666;2022-10-20T07:34:15;13.40;99.90
5554;DHT22;2800;49.528;8.666;2022-10-20T07:36:42;13.80;99.90
5554;DHT22;2800;49.528;8.666;2022-10-20T07:39:10;14.00;99.90
5554;DHT22;2800;49.528;8.666;2022-10-20T07:41:36;14.10;99.90
5554;DHT22;2800;49.528;8.666;2022-10-20T07:44:03;14.00;99.90
5554;DHT22;2800;49.528;8.666;2022-10-20T07:46:29;13.90;99.90
5554;DHT22;2800;49.528;8.666;2022-10-20T07:48:55;13.80;99.90
5554;DHT22;2800;49.528;8.666;2022-10-20T07:53:47;13.80;99.90
5554;DHT22;2800;49.528;8.666;2022-10-20T07:56:13;13.80;99.90
5554;DHT22;2800;49.528;8.666;2022-10-20T07:58:39;13.90;99.90
5554;DHT22;2800;49.528;8.666;2022-10-20T08:01:04;13.90;99.90
5554;DHT22;2800;49.528;8.666;2022-10-20T08:03:30;13.80;99.90
5554;DHT22;2800;49.528;8.666;2022-10-20T08:05:56;14.00;99.90
5554;DHT22;2800;49.528;8.666;2022-10-20T08:08:21;14.20;99.90
5554;DHT22;2800;49.528;8.666;2022-10-20T08:10:47;14.30;99.90
5554;DHT22;2800;49.528;8.666;2022-10-20T08:13:13;14.60;99.90
5554;DHT22;2800;49.528;8.666;2022-10-20T08:15:38;14.50;99.90
5554;DHT22;2800;49.528;8.666;2022-10-20T08:18:04;14.40;99.90
5554;DHT22;2800;49.528;8.666;2022-10-20T08:20:30;14.20;99.90
5554;DHT22;2800;49.528;8.666;2022-10-20T08:22:57;14.10;99.90
5554;DHT22;2800;49.528;8.666;2022-10-20T08:25:22;14.10;99.90
5554;DHT22;2800;49.528;8.666;2022-10-20T08:27:48;14.50;99.90
5554;DHT22;2800;49.528;8.666;2022-10-20T08:30:13;14.70;99.90
5554;DHT22;2800;49.528;8.666;2022-10-20T08:32:39;15.00;99.90
5554;DHT22;2800;49.528;8.666;2022-10-20T08:35:05;15.30;99.90
5554;DHT22;2800;49.528;8.666;2022-10-20T08:37:31;15.70;99.90
5554;DHT22;2800;49.528;8.666;2022-10-20T08:39:57;15.80;99.90
5554;DHT22;2800;49.528;8.666;2022-10-20T08:42:22;16.00;99.90
5554;DHT22;2800;49.528;8.666;2022-10-20T08:44:49;15.60;99.90
5554;DHT22;2800;49.528;8.666;2022-10-20T08:47:30;15.60;99.90
5554;DHT22;2800;49.528;8.666;2022-10-20T08:49:56;15.40;99.90
5554;DHT22;2800;49.528;8.666;2022-10-20T08:52:23;15.40;99.90
5554;DHT22;2800;49.528;8.666;2022-10-20T08:54:52;15.70;99.90
5554;DHT22;2800;49.528;8.666;2022-10-20T08:57:22;15.70;99.90
5554;DHT22;2800;49.528;8.666;2022-10-20T08:59:54;16.10;99.90
5554;DHT22;2800;49.528;8.666;2022-10-20T09:02:21;16.40;99.90
5554;DHT22;2800;49.528;8.666;2022-10-20T09:04:58;16.10;99.90
5554;DHT22;2800;49.528;8.666;2022-10-20T09:07:34;16.10;99.90
5554;DHT22;2800;49.528;8.666;2022-10-20T09:10:10;16.40;99.90
5554;DHT22;2800;49.528;8.666;2022-10-20T09:12:41;16.80;99.90
5554;DHT22;2800;49.528;8.666;2022-10-20T09:15:10;17.00;99.90
5554;DHT22;2800;49.528;8.666;2022-10-20T09:17:36;17.00;99.90
5554;DHT22;2800;49.528;8.666;2022-10-20T09:20:05;17.00;99.90
5554;DHT22;2800;49.528;8.666;2022-10-20T09:22:36;17.50;99.90
5554;DHT22;2800;49.528;8.666;2022-10-20T09:25:03;17.00;99.90
5554;DHT22;2800;49.528;8.666;2022-10-20T09:27:34;16.40;99.90
5554;DHT22;2800;49.528;8.666;2022-10-20T09:30:21;16.30;99.90
5554;DHT22;2800;49.528;8.666;2022-10-20T09:32:47;15.80;99.90
5554;DHT22;2800;49.528;8.666;2022-10-20T09:35:22;15.30;99.90
5554;DHT22;2800;49.528;8.666;2022-10-20T09:37:59;15.50;99.90
5554;DHT22;2800;49.528;8.666;2022-10-20T09:40:26;15.90;99.90
5554;DHT22;2800;49.528;8.666;2022-10-20T09:42:56;16.00;99.90
5554;DHT22;2800;49.528;8.666;2022-10-20T09:45:26;15.90;99.90
5554;DHT22;2800;49.528;8.666;2022-10-20T09:48:05;16.10;99.90
5554;DHT22;2800;49.528;8.666;2022-10-20T09:50:38;16.00;99.90
5554;DHT22;2800;49.528;8.666;2022-10-20T09:53:14;16.20;99.90
5554;DHT22;2800;49.528;8.666;2022-10-20T09:55:46;16.50;99.90
5554;DHT22;2800;49.528;8.666;2022-10-20T09:58:22;16.90;99.90
5554;DHT22;2800;49.528;8.666;2022-10-20T10:01:04;16.60;99.90
5554;DHT22;2800;49.528;8.666;2022-10-20T10:03:44;16.30;99.90
5554;DHT22;2800;49.528;8.666;2022-10-20T10:08:53;16.20;99.90
5554;DHT22;2800;49.528;8.666;2022-10-20T10:11:21;16.30;99.90
5554;DHT22;2800;49.528;8.666;2022-10-20T10:13:49;16.30;99.90
5554;DHT22;2800;49.528;8.666;2022-10-20T10:16:18;16.50;99.90
5554;DHT22;2800;49.528;8.666;2022-10-20T10:18:56;16.70;99.90
5554;DHT22;2800;49.528;8.666;2022-10-20T10:21:24;16.90;99.90
5554;DHT22;2800;49.528;8.666;2022-10-20T10:24:01;16.50;99.90
5554;DHT22;2800;49.528;8.666;2022-10-20T10:26:54;16.60;99.90
5554;DHT22;2800;49.528;8.666;2022-10-20T10:29:25;16.40;99.90
5554;DHT22;2800;49.528;8.666;2022-10-20T10:32:00;16.50;99.90
5554;DHT22;2800;49.528;8.666;2022-10-20T10:34:36;17.20;99.90
5554;DHT22;2800;49.528;8.666;2022-10-20T10:37:03;18.10;99.90
5554;DHT22;2800;49.528;8.666;2022-10-20T10:39:31;18.70;99.90
5554;DHT22;2800;49.528;8.666;2022-10-20T10:42:16;19.40;99.90
5554;DHT22;2800;49.528;8.666;2022-10-20T10:50:39;19.00;99.90
5554;DHT22;2800;49.528;8.666;2022-10-20T10:53:37;19.20;99.90
5554;DHT22;2800;49.528;8.666;2022-10-20T10:58:57;18.80;99.90
5554;DHT22;2800;49.528;8.666;2022-10-20T11:18:05;17.90;99.90
5554;DHT22;2800;49.528;8.666;2022-10-20T11:20:47;17.60;99.90
5554;DHT22;2800;49.528;8.666;2022-10-20T11:23:33;17.50;99.90
5554;DHT22;2800;49.528;8.666;2022-10-20T11:28:44;17.50;99.90
5554;DHT22;2800;49.528;8.666;2022-10-20T11:31:29;17.40;99.90
5554;DHT22;2800;49.528;8.666;2022-10-20T11:34:10;17.30;99.90
5554;DHT22;2800;49.528;8.666;2022-10-20T11:36:43;17.30;99.90
5554;DHT22;2800;49.528;8.666;2022-10-20T11:39:24;17.30;99.90
5554;DHT22;2800;49.528;8.666;2022-10-20T11:41:55;17.30;99.90
5554;DHT22;2800;49.528;8.666;2022-10-20T11:44:28;17.30;99.90
5554;DHT22;2800;49.528;8.666;2022-10-20T11:47:01;17.30;99.90
5554;DHT22;2800;49.528;8.666;2022-10-20T11:49:29;17.30;99.90
5554;DHT22;2800;49.528;8.666;2022-10-20T11:54:48;17.10;99.90
5554;DHT22;2800;49.528;8.666;2022-10-20T11:58:11;17.10;99.90
5554;DHT22;2800;49.528;8.666;2022-10-20T12:14:48;16.80;99.90
5554;DHT22;2800;49.528;8.666;2022-10-20T12:17:33;16.80;99.90
5554;DHT22;2800;49.528;8.666;2022-10-20T12:22:44;16.90;99.90
5554;DHT22;2800;49.528;8.666;2022-10-20T12:27:42;16.90;99.90
5554;DHT22;2800;49.528;8.666;2022-10-20T12:35:57;16.90;99.90
5554;DHT22;2800;49.528;8.666;2022-10-20T12:38:23;16.80;99.90
5554;DHT22;2800;49.528;8.666;2022-10-20T12:40:55;16.70;99.90
5554;DHT22;2800;49.528;8.666;2022-10-20T12:43:31;16.50;99.90
5554;DHT22;2800;49.528;8.666;2022-10-20T12:46:09;16.40;99.90
5554;DHT22;2800;49.528;8.666;2022-10-20T12:48:41;16.40;99.90
5554;DHT22;2800;49.528;8.666;2022-10-20T12:51:21;16.30;99.90
5554;DHT22;2800;49.528;8.666;2022-10-20T12:53:58;16.30;99.90
5554;DHT22;2800;49.528;8.666;2022-10-20T12:56:30;16.20;99.90
5554;DHT22;2800;49.528;8.666;2022-10-20T13:04:59;15.80;99.90
5554;DHT22;2800;49.528;8.666;2022-10-20T13:15:46;15.70;99.90
5554;DHT22;2800;49.528;8.666;2022-10-20T13:18:29;15.70;99.90
5554;DHT22;2800;49.528;8.666;2022-10-20T13:23:45;15.70;99.90
5554;DHT22;2800;49.528;8.666;2022-10-20T13:26:21;15.60;99.90
5554;DHT22;2800;49.528;8.666;2022-10-20T13:28:49;15.60;99.90
5554;DHT22;2800;49.528;8.666;2022-10-20T13:45:37;15.70;99.90
5554;DHT22;2800;49.528;8.666;2022-10-20T13:50:48;15.60;99.90
5554;DHT22;2800;49.528;8.666;2022-10-20T13:53:28;15.50;99.90
5554;DHT22;2800;49.528;8.666;2022-10-20T13:58:23;15.40;99.90
5554;DHT22;2800;49.528;8.666;2022-10-20T14:01:16;15.30;99.90
5554;DHT22;2800;49.528;8.666;2022-10-20T14:03:47;15.30;99.90
5554;DHT22;2800;49.528;8.666;2022-10-20T14:06:35;15.30;99.90
5554;DHT22;2800;49.528;8.666;2022-10-20T14:09:11;15.30;99.90
5554;DHT22;2800;49.528;8.666;2022-10-20T14:11:37;15.30;99.90
5554;DHT22;2800;49.528;8.666;2022-10-20T14:14:03;15.20;99.90
5554;DHT22;2800;49.528;8.666;2022-10-20T14:16:29;15.20;99.90
5554;DHT22;2800;49.528;8.666;2022-10-20T14:19:09;15.20;99.90
5554;DHT22;2800;49.528;8.666;2022-10-20T14:21:44;15.20;99.90
5554;DHT22;2800;49.528;8.666;2022-10-20T14:24:18;15.20;99.90
5554;DHT22;2800;49.528;8.666;2022-10-20T14:26:47;15.20;99.90
5554;DHT22;2800;49.528;8.666;2022-10-20T14:29:15;15.20;99.90
5554;DHT22;2800;49.528;8.666;2022-10-20T14:31:41;15.20;99.90
5554;DHT22;2800;49.528;8.666;2022-10-20T14:34:27;15.20;99.90
5554;DHT22;2800;49.528;8.666;2022-10-20T14:36:53;15.20;99.90
5554;DHT22;2800;49.528;8.666;2022-10-20T14:39:35;15.20;99.90
5554;DHT22;2800;49.528;8.666;2022-10-20T14:42:04;15.20;1.00
5554;DHT22;2800;49.528;8.666;2022-10-20T14:44:30;15.20;1.00
5554;DHT22;2800;49.528;8.666;2022-10-20T14:46:59;15.20;1.00
5554;DHT22;2800;49.528;8.666;2022-10-20T14:49:32;15.30;1.00
5554;DHT22;2800;49.528;8.666;2022-10-20T14:52:04;15.30;99.90
5554;DHT22;2800;49.528;8.666;2022-10-20T14:57:26;15.40;77.50
5554;DHT22;2800;49.528;8.666;2022-10-20T14:59:57;15.40;1.00
5554;DHT22;2800;49.528;8.666;2022-10-20T15:02:33;15.30;1.00
5554;DHT22;2800;49.528;8.666;2022-10-20T15:05:31;15.20;1.00
5554;DHT22;2800;49.528;8.666;2022-10-20T15:08:25;15.20;99.90
5554;DHT22;2800;49.528;8.666;2022-10-20T15:10:51;15.10;99.90
5554;DHT22;2800;49.528;8.666;2022-10-20T15:13:22;15.20;1.00
5554;DHT22;2800;49.528;8.666;2022-10-20T15:15:48;15.30;99.90
5554;DHT22;2800;49.528;8.666;2022-10-20T15:18:17;15.30;1.00
5554;DHT22;2800;49.528;8.666;2022-10-20T15:20:44;15.30;1.00
5554;DHT22;2800;49.528;8.666;2022-10-20T15:23:18;15.20;1.00
5554;DHT22;2800;49.528;8.666;2022-10-20T15:25:48;15.30;1.00
5554;DHT22;2800;49.528;8.666;2022-10-20T15:33:39;15.40;1.00
5554;DHT22;2800;49.528;8.666;2022-10-20T15:36:11;15.40;1.00
5554;DHT22;2800;49.528;8.666;2022-10-20T15:38:39;15.40;1.00
5554;DHT22;2800;49.528;8.666;2022-10-20T15:41:05;15.40;1.00
5554;DHT22;2800;49.528;8.666;2022-10-20T15:43:31;15.30;99.90
5554;DHT22;2800;49.528;8.666;2022-10-20T15:45:57;15.20;1.00
5554;DHT22;2800;49.528;8.666;2022-10-20T15:48:23;15.10;1.00
5554;DHT22;2800;49.528;8.666;2022-10-20T15:50:51;15.00;99.90
5554;DHT22;2800;49.528;8.666;2022-10-20T15:53:17;15.00;99.90
5554;DHT22;2800;49.528;8.666;2022-10-20T15:55:43;15.10;99.90
5554;DHT22;2800;49.528;8.666;2022-10-20T15:58:09;14.90;99.90
5554;DHT22;2800;49.528;8.666;2022-10-20T16:00:35;14.90;99.90
5554;DHT22;2800;49.528;8.666;2022-10-20T16:03:01;14.90;99.90
5554;DHT22;2800;49.528;8.666;2022-10-20T16:05:26;14.90;99.90
5554;DHT22;2800;49.528;8.666;2022-10-20T16:07:54;14.90;99.90
5554;DHT22;2800;49.528;8.666;2022-10-20T16:10:21;14.80;99.90
5554;DHT22;2800;49.528;8.666;2022-10-20T16:12:48;14.80;99.90
5554;DHT22;2800;49.528;8.666;2022-10-20T16:15:14;14.70;99.90
5554;DHT22;2800;49.528;8.666;2022-10-20T16:17:40;14.70;99.90
5554;DHT22;2800;49.528;8.666;2022-10-20T16:20:06;14.70;99.90
5554;DHT22;2800;49.528;8.666;2022-10-20T16:22:32;14.70;99.90
5554;DHT22;2800;49.528;8.666;2022-10-20T16:24:58;14.70;99.90
5554;DHT22;2800;49.528;8.666;2022-10-20T16:27:29;14.70;99.90
5554;DHT22;2800;49.528;8.666;2022-10-20T16:29:55;14.70;99.90
5554;DHT22;2800;49.528;8.666;2022-10-20T16:32:21;14.70;99.90
5554;DHT22;2800;49.528;8.666;2022-10-20T16:34:47;14.70;99.90
5554;DHT22;2800;49.528;8.666;2022-10-20T16:37:12;14.60;99.90
5554;DHT22;2800;49.528;8.666;2022-10-20T16:39:38;14.60;99.90
5554;DHT22;2800;49.528;8.666;2022-10-20T16:42:03;14.50;99.90
5554;DHT22;2800;49.528;8.666;2022-10-20T16:44:29;14.40;99.90
5554;DHT22;2800;49.528;8.666;2022-10-20T16:46:55;14.40;99.90
5554;DHT22;2800;49.528;8.666;2022-10-20T16:49:21;14.40;99.90
5554;DHT22;2800;49.528;8.666;2022-10-20T16:51:46;14.40;99.90
5554;DHT22;2800;49.528;8.666;2022-10-20T16:54:12;14.40;99.90
5554;DHT22;2800;49.528;8.666;2022-10-20T16:56:37;14.50;99.90
5554;DHT22;2800;49.528;8.666;2022-10-20T16:59:03;14.60;99.90
5554;DHT22;2800;49.528;8.666;2022-10-20T17:01:28;14.60;99.90
5554;DHT22;2800;49.528;8.666;2022-10-20T17:03:54;14.60;99.90
5554;DHT22;2800;49.528;8.666;2022-10-20T17:06:22;14.60;99.90
5554;DHT22;2800;49.528;8.666;2022-10-20T17:08:48;14.50;99.90
5554;DHT22;2800;49.528;8.666;2022-10-20T17:11:23;14.40;99.90
5554;DHT22;2800;49.528;8.666;2022-10-20T17:13:49;14.40;99.90
5554;DHT22;2800;49.528;8.666;2022-10-20T17:16:19;14.40;99.90
5554;DHT22;2800;49.528;8.666;2022-10-20T17:18:45;14.40;99.90
5554;DHT22;2800;49.528;8.666;2022-10-20T17:21:11;14.40;99.90
5554;DHT22;2800;49.528;8.666;2022-10-20T17:23:39;14.40;99.90
5554;DHT22;2800;49.528;8.666;2022-10-20T17:26:06;14.40;99.90
5554;DHT22;2800;49.528;8.666;2022-10-20T17:28:34;14.40;99.90
5554;DHT22;2800;49.528;8.666;2022-10-20T17:31:00;14.40;99.90
5554;DHT22;2800;49.528;8.666;2022-10-20T17:33:27;14.50;99.90
5554;DHT22;2800;49.528;8.666;2022-10-20T17:35:55;14.50;99.90
5554;DHT22;2800;49.528;8.666;2022-10-20T17:38:21;14.50;99.90
5554;DHT22;2800;49.528;8.666;2022-10-20T17:40:47;14.50;99.90
5554;DHT22;2800;49.528;8.666;2022-10-20T17:43:13;14.40;99.90
5554;DHT22;2800;49.528;8.666;2022-10-20T17:45:38;14.40;99.90
5554;DHT22;2800;49.528;8.666;2022-10-20T17:48:04;14.40;99.90
5554;DHT22;2800;49.528;8.666;2022-10-20T17:50:30;14.40;99.90
5554;DHT22;2800;49.528;8.666;2022-10-20T17:52:58;14.40;99.90
5554;DHT22;2800;49.528;8.666;2022-10-20T17:55:24;14.30;99.90
5554;DHT22;2800;49.528;8.666;2022-10-20T17:57:50;14.30;99.90
5554;DHT22;2800;49.528;8.666;2022-10-20T18:00:15;14.30;99.90
5554;DHT22;2800;49.528;8.666;2022-10-20T18:02:46;14.30;99.90
5554;DHT22;2800;49.528;8.666;2022-10-20T18:05:12;14.40;99.90
5554;DHT22;2800;49.528;8.666;2022-10-20T18:07:37;14.40;99.90
5554;DHT22;2800;49.528;8.666;2022-10-20T18:10:03;14.40;99.90
5554;DHT22;2800;49.528;8.666;2022-10-20T18:12:29;14.30;99.90
5554;DHT22;2800;49.528;8.666;2022-10-20T18:14:54;14.30;99.90